SWR9PX LSZH-ESSA
Flight info
| Callsign | SWR9PX |
|---|---|
| Flight time | 2h 3m |
| Altitude | 34000 |
| Route | DEGES2Y DEGES Z1 ETAGO DCT TIKNI DCT ROBEL DCT KENIG DCT VIBIS DCT ADUKI Z400 ARGAD DCT OKAGA DCT VIBAR Z227 NILUG NILUG3P |
| Aircraft | A321/M-SDE3FGHIRWY/LB1 |
Departure
| Time | 2026-05-05 14:23 |
|---|---|
| Airport | Zürich Airport (LSZH) |
Arrival
| Time | 2026-05-05 16:27 |
|---|---|
| Airport | Stockholm-Arlanda Airport (ESSA) |
| Time | Latitude | Longitude | Altitude | Speed | Heading |
|---|---|---|---|---|---|
| 2026-05-05 13:42 | 47.45330 | 8.55943 | 1397 ft | 0 kts | 6° |
| 2026-05-05 14:13 | 47.45323 | 8.55942 | 1397 ft | 2 kts | 7° |
| 2026-05-05 14:13 | 47.45304 | 8.55937 | 1405 ft | 3 kts | 12° |
| 2026-05-05 14:13 | 47.45284 | 8.55931 | 1403 ft | 3 kts | 12° |
| 2026-05-05 14:14 | 47.45265 | 8.55926 | 1405 ft | 3 kts | 353° |
| 2026-05-05 14:14 | 47.45254 | 8.55926 | 1404 ft | 2 kts | 291° |
| 2026-05-05 14:14 | 47.45253 | 8.55929 | 1404 ft | 0 kts | 272° |
| 2026-05-05 14:16 | 47.45253 | 8.55928 | 1404 ft | 1 kts | 272° |
| 2026-05-05 14:16 | 47.45254 | 8.55872 | 1401 ft | 10 kts | 274° |
| 2026-05-05 14:16 | 47.45263 | 8.55755 | 1397 ft | 12 kts | 276° |
| 2026-05-05 14:17 | 47.45272 | 8.55626 | 1397 ft | 13 kts | 277° |
| 2026-05-05 14:17 | 47.45297 | 8.55520 | 1399 ft | 10 kts | 288° |
| 2026-05-05 14:17 | 47.45329 | 8.55427 | 1408 ft | 10 kts | 313° |
| 2026-05-05 14:17 | 47.45399 | 8.55370 | 1399 ft | 15 kts | 334° |
| 2026-05-05 14:18 | 47.45515 | 8.55290 | 1403 ft | 21 kts | 335° |
| 2026-05-05 14:18 | 47.45605 | 8.55228 | 1400 ft | 0 kts | 335° |
| 2026-05-05 14:18 | 47.45606 | 8.55227 | 1399 ft | 1 kts | 335° |
| 2026-05-05 14:19 | 47.45633 | 8.55211 | 1401 ft | 7 kts | 343° |
| 2026-05-05 14:19 | 47.45678 | 8.55260 | 1399 ft | 11 kts | 79° |
| 2026-05-05 14:19 | 47.45671 | 8.55394 | 1400 ft | 14 kts | 96° |
| 2026-05-05 14:19 | 47.45660 | 8.55540 | 1402 ft | 15 kts | 96° |
| 2026-05-05 14:20 | 47.45650 | 8.55693 | 1397 ft | 15 kts | 96° |
| 2026-05-05 14:20 | 47.45639 | 8.55849 | 1397 ft | 15 kts | 96° |
| 2026-05-05 14:20 | 47.45626 | 8.56034 | 1397 ft | 19 kts | 95° |
| 2026-05-05 14:20 | 47.45611 | 8.56221 | 1397 ft | 18 kts | 97° |
| 2026-05-05 14:21 | 47.45600 | 8.56403 | 1403 ft | 20 kts | 95° |
| 2026-05-05 14:21 | 47.45584 | 8.56612 | 1397 ft | 21 kts | 96° |
| 2026-05-05 14:21 | 47.45569 | 8.56827 | 1397 ft | 21 kts | 96° |
| 2026-05-05 14:21 | 47.45580 | 8.57000 | 1405 ft | 14 kts | 45° |
| 2026-05-05 14:22 | 47.45659 | 8.57006 | 1401 ft | 11 kts | 311° |
| 2026-05-05 14:22 | 47.45671 | 8.56883 | 1399 ft | 20 kts | 276° |
| 2026-05-05 14:22 | 47.45703 | 8.56303 | 1398 ft | 91 kts | 274° |
| 2026-05-05 14:22 | 47.45798 | 8.55072 | 1398 ft | 147 kts | 276° |
| 2026-05-05 14:23 | 47.45921 | 8.53377 | 1584 ft | 175 kts | 276° |
| 2026-05-05 14:23 | 47.46068 | 8.51550 | 2328 ft | 177 kts | 277° |
| 2026-05-05 14:23 | 47.46212 | 8.49773 | 3048 ft | 177 kts | 275° |
| 2026-05-05 14:23 | 47.46351 | 8.47996 | 3703 ft | 170 kts | 274° |
| 2026-05-05 14:24 | 47.46236 | 8.46340 | 4374 ft | 158 kts | 250° |
| 2026-05-05 14:24 | 47.45571 | 8.45060 | 4728 ft | 169 kts | 218° |
| 2026-05-05 14:24 | 47.44524 | 8.44039 | 4878 ft | 189 kts | 220° |
| 2026-05-05 14:24 | 47.43702 | 8.42440 | 5015 ft | 206 kts | 246° |
| 2026-05-05 14:25 | 47.43170 | 8.40383 | 5366 ft | 218 kts | 251° |
| 2026-05-05 14:25 | 47.42673 | 8.38283 | 6030 ft | 220 kts | 240° |
| 2026-05-05 14:25 | 47.41580 | 8.36744 | 6602 ft | 222 kts | 204° |
| 2026-05-05 14:25 | 47.40057 | 8.36452 | 7195 ft | 228 kts | 170° |
| 2026-05-05 14:26 | 47.38648 | 8.37553 | 7790 ft | 238 kts | 135° |
| 2026-05-05 14:26 | 47.37939 | 8.39776 | 8341 ft | 249 kts | 96° |
| 2026-05-05 14:26 | 47.38286 | 8.42280 | 8878 ft | 257 kts | 58° |
| 2026-05-05 14:26 | 47.39589 | 8.44059 | 9413 ft | 258 kts | 22° |
| 2026-05-05 14:27 | 47.41225 | 8.45204 | 9922 ft | 264 kts | 32° |
| 2026-05-05 14:27 | 47.42520 | 8.47155 | 10179 ft | 282 kts | 57° |
| 2026-05-05 14:27 | 47.43634 | 8.49679 | 10321 ft | 305 kts | 58° |
| 2026-05-05 14:27 | 47.44806 | 8.52431 | 10455 ft | 328 kts | 63° |
| 2026-05-05 14:28 | 47.45610 | 8.55668 | 10641 ft | 344 kts | 81° |
| 2026-05-05 14:28 | 47.45835 | 8.59214 | 11140 ft | 350 kts | 90° |
| 2026-05-05 14:28 | 47.45943 | 8.62824 | 11792 ft | 353 kts | 89° |
| 2026-05-05 14:28 | 47.46083 | 8.66471 | 12490 ft | 357 kts | 89° |
| 2026-05-05 14:29 | 47.46236 | 8.70150 | 13176 ft | 360 kts | 88° |
| 2026-05-05 14:29 | 47.46390 | 8.73850 | 13809 ft | 363 kts | 88° |
| 2026-05-05 14:29 | 47.46541 | 8.77590 | 14397 ft | 366 kts | 88° |
| 2026-05-05 14:29 | 47.46638 | 8.81353 | 15014 ft | 366 kts | 94° |
| 2026-05-05 14:30 | 47.46326 | 8.85081 | 15627 ft | 366 kts | 104° |
| 2026-05-05 14:30 | 47.45783 | 8.88759 | 16228 ft | 368 kts | 105° |
| 2026-05-05 14:30 | 47.45236 | 8.92464 | 16836 ft | 370 kts | 105° |
| 2026-05-05 14:30 | 47.44701 | 8.96153 | 17430 ft | 373 kts | 104° |
| 2026-05-05 14:31 | 47.44162 | 8.99911 | 18024 ft | 375 kts | 104° |
| 2026-05-05 14:31 | 47.43623 | 9.03690 | 18546 ft | 377 kts | 104° |
| 2026-05-05 14:31 | 47.43080 | 9.07498 | 19033 ft | 380 kts | 105° |
| 2026-05-05 14:31 | 47.42530 | 9.11324 | 19507 ft | 383 kts | 105° |
| 2026-05-05 14:32 | 47.41974 | 9.15182 | 19979 ft | 385 kts | 105° |
| 2026-05-05 14:32 | 47.41413 | 9.19062 | 20448 ft | 388 kts | 105° |
| 2026-05-05 14:32 | 47.41080 | 9.23025 | 20915 ft | 395 kts | 90° |
| 2026-05-05 14:32 | 47.41650 | 9.27007 | 21349 ft | 403 kts | 68° |
| 2026-05-05 14:33 | 47.43185 | 9.30500 | 21784 ft | 410 kts | 46° |
| 2026-05-05 14:33 | 47.45319 | 9.33309 | 22211 ft | 414 kts | 43° |
| 2026-05-05 14:33 | 47.47300 | 9.36409 | 22620 ft | 415 kts | 54° |
| 2026-05-05 14:33 | 47.48901 | 9.39948 | 23048 ft | 416 kts | 59° |
| 2026-05-05 14:34 | 47.50816 | 9.43177 | 23446 ft | 422 kts | 37° |
| 2026-05-05 14:34 | 47.53421 | 9.45170 | 23766 ft | 425 kts | 17° |
| 2026-05-05 14:34 | 47.56315 | 9.46084 | 24092 ft | 427 kts | 4° |
| 2026-05-05 14:34 | 47.59262 | 9.45798 | 24417 ft | 426 kts | 347° |
| 2026-05-05 14:35 | 47.62181 | 9.44946 | 24736 ft | 429 kts | 350° |
| 2026-05-05 14:35 | 47.65130 | 9.44601 | 25054 ft | 433 kts | 359° |
| 2026-05-05 14:35 | 47.68153 | 9.44766 | 25385 ft | 436 kts | 4° |
| 2026-05-05 14:35 | 47.71183 | 9.45196 | 25713 ft | 439 kts | 6° |
| 2026-05-05 14:36 | 47.74226 | 9.45687 | 26049 ft | 441 kts | 5° |
| 2026-05-05 14:36 | 47.77288 | 9.46111 | 26372 ft | 444 kts | 4° |
| 2026-05-05 14:36 | 47.80377 | 9.46420 | 26702 ft | 446 kts | 2° |
| 2026-05-05 14:36 | 47.83486 | 9.46552 | 27027 ft | 448 kts | 0° |
| 2026-05-05 14:37 | 47.86614 | 9.46533 | 27345 ft | 451 kts | 359° |
| 2026-05-05 14:37 | 47.89756 | 9.46434 | 27656 ft | 453 kts | 358° |
| 2026-05-05 14:37 | 47.92918 | 9.46317 | 27968 ft | 455 kts | 358° |
| 2026-05-05 14:37 | 47.96087 | 9.46230 | 28267 ft | 458 kts | 359° |
| 2026-05-05 14:38 | 47.99283 | 9.46183 | 28563 ft | 460 kts | 360° |
| 2026-05-05 14:38 | 48.02494 | 9.46172 | 28871 ft | 462 kts | 0° |
| 2026-05-05 14:38 | 48.05720 | 9.46178 | 29160 ft | 465 kts | 0° |
| 2026-05-05 14:38 | 48.08955 | 9.46190 | 29447 ft | 467 kts | 0° |
| 2026-05-05 14:39 | 48.12214 | 9.46198 | 29732 ft | 469 kts | 0° |
| 2026-05-05 14:39 | 48.15481 | 9.46199 | 29990 ft | 471 kts | 0° |
| 2026-05-05 14:39 | 48.18765 | 9.46193 | 30226 ft | 473 kts | 0° |
| 2026-05-05 14:39 | 48.22063 | 9.46186 | 30476 ft | 474 kts | 0° |
| 2026-05-05 14:40 | 48.25372 | 9.46183 | 30716 ft | 476 kts | 0° |
| 2026-05-05 14:40 | 48.28647 | 9.46185 | 30948 ft | 478 kts | 0° |
| 2026-05-05 14:40 | 48.31968 | 9.46193 | 31295 ft | 477 kts | 0° |
| 2026-05-05 14:40 | 48.35280 | 9.46200 | 31647 ft | 476 kts | 0° |
| 2026-05-05 14:41 | 48.38583 | 9.46205 | 31994 ft | 475 kts | 0° |
| 2026-05-05 14:41 | 48.41884 | 9.46210 | 32329 ft | 474 kts | 0° |
| 2026-05-05 14:41 | 48.45180 | 9.46213 | 32664 ft | 473 kts | 0° |
| 2026-05-05 14:41 | 48.48470 | 9.46211 | 32995 ft | 473 kts | 0° |
| 2026-05-05 14:42 | 48.51754 | 9.46206 | 33363 ft | 472 kts | 0° |
| 2026-05-05 14:42 | 48.55043 | 9.46202 | 33714 ft | 472 kts | 0° |
| 2026-05-05 14:42 | 48.58322 | 9.46181 | 33844 ft | 469 kts | 360° |
| 2026-05-05 14:42 | 48.61543 | 9.46146 | 33859 ft | 459 kts | 360° |
| 2026-05-05 14:43 | 48.67895 | 9.46058 | 33864 ft | 455 kts | 360° |
| 2026-05-05 14:43 | 48.74207 | 9.46319 | 33862 ft | 454 kts | 9° |
| 2026-05-05 14:44 | 48.80408 | 9.47807 | 33863 ft | 454 kts | 10° |
| 2026-05-05 14:44 | 48.86653 | 9.49320 | 33857 ft | 455 kts | 10° |
| 2026-05-05 14:45 | 48.92908 | 9.50796 | 33854 ft | 455 kts | 10° |
| 2026-05-05 14:45 | 48.99167 | 9.52288 | 33850 ft | 455 kts | 10° |
| 2026-05-05 14:46 | 49.05421 | 9.53788 | 33854 ft | 455 kts | 10° |
| 2026-05-05 14:46 | 49.11684 | 9.55297 | 33852 ft | 456 kts | 10° |
| 2026-05-05 14:47 | 49.17949 | 9.56813 | 33847 ft | 456 kts | 9° |
| 2026-05-05 14:47 | 49.24222 | 9.58328 | 33848 ft | 456 kts | 9° |
| 2026-05-05 14:48 | 49.30456 | 9.59839 | 33848 ft | 457 kts | 9° |
| 2026-05-05 14:48 | 49.36735 | 9.61366 | 33842 ft | 457 kts | 9° |
| 2026-05-05 14:49 | 49.43020 | 9.62891 | 33844 ft | 457 kts | 9° |
| 2026-05-05 14:49 | 49.48241 | 9.64160 | 33840 ft | 457 kts | 9° |
| 2026-05-05 14:50 | 49.54523 | 9.65711 | 33841 ft | 457 kts | 9° |
| 2026-05-05 14:50 | 49.60817 | 9.67273 | 33844 ft | 458 kts | 9° |
| 2026-05-05 14:51 | 49.67110 | 9.68822 | 33844 ft | 458 kts | 9° |
| 2026-05-05 14:51 | 49.73390 | 9.70366 | 33831 ft | 457 kts | 8° |
| 2026-05-05 14:52 | 49.79660 | 9.71918 | 33823 ft | 456 kts | 8° |
| 2026-05-05 14:52 | 49.85935 | 9.73483 | 33826 ft | 456 kts | 8° |
| 2026-05-05 14:53 | 49.92200 | 9.75041 | 33820 ft | 456 kts | 8° |
| 2026-05-05 14:53 | 49.98468 | 9.76595 | 33818 ft | 456 kts | 8° |
| 2026-05-05 14:54 | 50.04735 | 9.78163 | 33825 ft | 456 kts | 8° |
| 2026-05-05 14:54 | 50.10990 | 9.79739 | 33826 ft | 455 kts | 8° |
| 2026-05-05 14:55 | 50.17194 | 9.81304 | 33822 ft | 454 kts | 8° |
| 2026-05-05 14:55 | 50.23439 | 9.82873 | 33821 ft | 454 kts | 8° |
| 2026-05-05 14:56 | 50.29672 | 9.84450 | 33821 ft | 454 kts | 8° |
| 2026-05-05 14:56 | 50.35900 | 9.86033 | 33813 ft | 453 kts | 8° |
| 2026-05-05 14:57 | 50.41909 | 9.88969 | 33808 ft | 454 kts | 27° |
| 2026-05-05 14:57 | 50.47160 | 9.94372 | 33805 ft | 453 kts | 37° |
| 2026-05-05 14:58 | 50.52268 | 10.00202 | 33801 ft | 453 kts | 37° |
| 2026-05-05 14:58 | 50.57372 | 10.06035 | 33802 ft | 454 kts | 37° |
| 2026-05-05 14:59 | 50.62483 | 10.11906 | 33811 ft | 456 kts | 37° |
| 2026-05-05 14:59 | 50.67607 | 10.17809 | 33812 ft | 456 kts | 37° |
| 2026-05-05 15:00 | 50.71859 | 10.22718 | 33812 ft | 456 kts | 37° |
| 2026-05-05 15:00 | 50.77807 | 10.29599 | 33818 ft | 456 kts | 37° |
| 2026-05-05 15:01 | 50.82922 | 10.35533 | 33818 ft | 456 kts | 37° |
| 2026-05-05 15:01 | 50.88036 | 10.41489 | 33822 ft | 456 kts | 37° |
| 2026-05-05 15:02 | 50.93161 | 10.47421 | 33821 ft | 456 kts | 36° |
| 2026-05-05 15:02 | 50.98338 | 10.53241 | 33826 ft | 456 kts | 35° |
| 2026-05-05 15:03 | 51.03524 | 10.59049 | 33837 ft | 456 kts | 35° |
| 2026-05-05 15:03 | 51.08693 | 10.64911 | 33836 ft | 456 kts | 35° |
| 2026-05-05 15:04 | 51.13810 | 10.70758 | 33840 ft | 456 kts | 35° |
| 2026-05-05 15:04 | 51.18955 | 10.76653 | 33839 ft | 456 kts | 35° |
| 2026-05-05 15:05 | 51.26690 | 10.85513 | 33842 ft | 456 kts | 35° |
| 2026-05-05 15:06 | 51.31838 | 10.91428 | 33845 ft | 456 kts | 35° |
| 2026-05-05 15:06 | 51.36989 | 10.97375 | 33843 ft | 457 kts | 35° |
| 2026-05-05 15:07 | 51.42112 | 11.03307 | 33851 ft | 458 kts | 34° |
| 2026-05-05 15:07 | 51.47276 | 11.09294 | 33849 ft | 458 kts | 35° |
| 2026-05-05 15:08 | 51.52438 | 11.15290 | 33849 ft | 458 kts | 34° |
| 2026-05-05 15:08 | 51.57594 | 11.21312 | 33850 ft | 458 kts | 34° |
| 2026-05-05 15:09 | 51.62852 | 11.27077 | 33850 ft | 456 kts | 25° |
| 2026-05-05 15:09 | 51.68565 | 11.31501 | 33858 ft | 455 kts | 22° |
| 2026-05-05 15:10 | 51.74289 | 11.35891 | 33868 ft | 456 kts | 22° |
| 2026-05-05 15:10 | 51.80030 | 11.40320 | 33874 ft | 457 kts | 22° |
| 2026-05-05 15:11 | 51.85765 | 11.44759 | 33869 ft | 457 kts | 22° |
| 2026-05-05 15:11 | 51.91483 | 11.49200 | 33851 ft | 455 kts | 22° |
| 2026-05-05 15:12 | 51.97191 | 11.53642 | 33855 ft | 456 kts | 22° |
| 2026-05-05 15:12 | 52.02873 | 11.58080 | 33854 ft | 456 kts | 22° |
| 2026-05-05 15:13 | 52.08586 | 11.62559 | 33857 ft | 456 kts | 22° |
| 2026-05-05 15:13 | 52.14306 | 11.67038 | 33864 ft | 456 kts | 22° |
| 2026-05-05 15:14 | 52.20027 | 11.71539 | 33867 ft | 457 kts | 22° |
| 2026-05-05 15:14 | 52.25745 | 11.76056 | 33871 ft | 457 kts | 22° |
| 2026-05-05 15:15 | 52.31473 | 11.80589 | 33872 ft | 457 kts | 21° |
| 2026-05-05 15:15 | 52.37165 | 11.85101 | 33869 ft | 458 kts | 21° |
| 2026-05-05 15:16 | 52.42894 | 11.89657 | 33880 ft | 458 kts | 21° |
| 2026-05-05 15:16 | 52.48623 | 11.94248 | 33880 ft | 458 kts | 21° |
| 2026-05-05 15:17 | 52.54351 | 11.98839 | 33882 ft | 458 kts | 21° |
| 2026-05-05 15:17 | 52.60078 | 12.03432 | 33884 ft | 458 kts | 21° |
| 2026-05-05 15:18 | 52.65805 | 12.08036 | 33890 ft | 458 kts | 21° |
| 2026-05-05 15:18 | 52.71530 | 12.12651 | 33892 ft | 458 kts | 21° |
| 2026-05-05 15:19 | 52.77244 | 12.17290 | 33897 ft | 458 kts | 21° |
| 2026-05-05 15:19 | 52.82957 | 12.21948 | 33899 ft | 458 kts | 21° |
| 2026-05-05 15:20 | 52.88670 | 12.26602 | 33899 ft | 457 kts | 21° |
| 2026-05-05 15:20 | 52.94374 | 12.31260 | 33908 ft | 457 kts | 21° |
| 2026-05-05 15:21 | 53.00079 | 12.35876 | 33913 ft | 455 kts | 20° |
| 2026-05-05 15:21 | 53.05824 | 12.40100 | 33915 ft | 454 kts | 18° |
| 2026-05-05 15:22 | 53.11628 | 12.44210 | 33922 ft | 453 kts | 18° |
| 2026-05-05 15:22 | 53.17419 | 12.48409 | 33924 ft | 453 kts | 18° |
| 2026-05-05 15:23 | 53.23174 | 12.52674 | 33932 ft | 453 kts | 19° |
| 2026-05-05 15:23 | 53.28929 | 12.56973 | 33923 ft | 453 kts | 18° |
| 2026-05-05 15:24 | 53.34677 | 12.61247 | 33926 ft | 452 kts | 18° |
| 2026-05-05 15:24 | 53.40425 | 12.65519 | 33930 ft | 451 kts | 18° |
| 2026-05-05 15:25 | 53.46157 | 12.69810 | 33928 ft | 451 kts | 18° |
| 2026-05-05 15:25 | 53.51847 | 12.74086 | 33927 ft | 451 kts | 18° |
| 2026-05-05 15:26 | 53.57567 | 12.78385 | 33929 ft | 450 kts | 18° |
| 2026-05-05 15:26 | 53.63288 | 12.82701 | 33933 ft | 450 kts | 18° |
| 2026-05-05 15:27 | 53.68998 | 12.87020 | 33929 ft | 450 kts | 18° |
| 2026-05-05 15:27 | 53.74707 | 12.91352 | 33932 ft | 449 kts | 18° |
| 2026-05-05 15:28 | 53.80402 | 12.95688 | 33932 ft | 449 kts | 18° |
| 2026-05-05 15:28 | 53.86093 | 13.00038 | 33929 ft | 448 kts | 18° |
| 2026-05-05 15:29 | 53.91778 | 13.04385 | 33934 ft | 448 kts | 18° |
| 2026-05-05 15:29 | 53.97461 | 13.08744 | 33945 ft | 448 kts | 18° |
| 2026-05-05 15:30 | 54.03139 | 13.13118 | 33941 ft | 448 kts | 18° |
| 2026-05-05 15:30 | 54.08812 | 13.17504 | 33941 ft | 448 kts | 18° |
| 2026-05-05 15:31 | 54.14441 | 13.21879 | 33947 ft | 447 kts | 18° |
| 2026-05-05 15:31 | 54.20099 | 13.26278 | 33938 ft | 446 kts | 18° |
| 2026-05-05 15:32 | 54.25748 | 13.30683 | 33932 ft | 446 kts | 19° |
| 2026-05-05 15:32 | 54.31393 | 13.35103 | 33932 ft | 446 kts | 19° |
| 2026-05-05 15:33 | 54.37043 | 13.39460 | 33935 ft | 445 kts | 18° |
| 2026-05-05 15:33 | 54.42721 | 13.43693 | 33934 ft | 444 kts | 18° |
| 2026-05-05 15:34 | 54.48386 | 13.47902 | 33935 ft | 444 kts | 18° |
| 2026-05-05 15:34 | 54.54080 | 13.52024 | 33939 ft | 443 kts | 16° |
| 2026-05-05 15:35 | 54.59840 | 13.55716 | 33939 ft | 441 kts | 14° |
| 2026-05-05 15:35 | 54.65585 | 13.59291 | 33937 ft | 441 kts | 15° |
| 2026-05-05 15:36 | 54.71341 | 13.62986 | 33942 ft | 442 kts | 15° |
| 2026-05-05 15:36 | 54.77093 | 13.66751 | 33941 ft | 442 kts | 16° |
| 2026-05-05 15:37 | 54.82838 | 13.70531 | 33942 ft | 441 kts | 16° |
| 2026-05-05 15:37 | 54.88577 | 13.74312 | 33946 ft | 441 kts | 16° |
| 2026-05-05 15:38 | 54.94198 | 13.78640 | 33940 ft | 444 kts | 24° |
| 2026-05-05 15:38 | 54.99662 | 13.83649 | 33940 ft | 444 kts | 24° |
| 2026-05-05 15:39 | 55.05120 | 13.88655 | 33939 ft | 443 kts | 24° |
| 2026-05-05 15:39 | 55.10567 | 13.93654 | 33933 ft | 442 kts | 24° |
| 2026-05-05 15:40 | 55.15974 | 13.98640 | 33934 ft | 442 kts | 24° |
| 2026-05-05 15:40 | 55.21400 | 14.03662 | 33937 ft | 441 kts | 24° |
| 2026-05-05 15:41 | 55.26812 | 14.08694 | 33932 ft | 440 kts | 24° |
| 2026-05-05 15:41 | 55.32212 | 14.13731 | 33923 ft | 439 kts | 24° |
| 2026-05-05 15:42 | 55.37603 | 14.18770 | 33917 ft | 439 kts | 24° |
| 2026-05-05 15:42 | 55.42990 | 14.23814 | 33924 ft | 438 kts | 24° |
| 2026-05-05 15:43 | 55.48368 | 14.28870 | 33917 ft | 438 kts | 24° |
| 2026-05-05 15:43 | 55.53739 | 14.33943 | 33919 ft | 438 kts | 24° |
| 2026-05-05 15:44 | 55.59109 | 14.39027 | 33920 ft | 437 kts | 24° |
| 2026-05-05 15:44 | 55.64470 | 14.44110 | 33917 ft | 438 kts | 24° |
| 2026-05-05 15:45 | 55.69834 | 14.49221 | 33909 ft | 438 kts | 24° |
| 2026-05-05 15:45 | 55.75161 | 14.54304 | 33898 ft | 438 kts | 24° |
| 2026-05-05 15:46 | 55.80520 | 14.59432 | 33902 ft | 438 kts | 24° |
| 2026-05-05 15:46 | 55.85876 | 14.64588 | 33895 ft | 438 kts | 24° |
| 2026-05-05 15:47 | 55.91242 | 14.69767 | 33892 ft | 438 kts | 24° |
| 2026-05-05 15:47 | 55.95732 | 14.74111 | 33888 ft | 439 kts | 24° |
| 2026-05-05 15:48 | 56.01063 | 14.79274 | 33893 ft | 439 kts | 24° |
| 2026-05-05 15:48 | 56.06435 | 14.84489 | 33889 ft | 440 kts | 24° |
| 2026-05-05 15:49 | 56.11801 | 14.89737 | 33887 ft | 440 kts | 24° |
| 2026-05-05 15:49 | 56.17182 | 14.95013 | 33888 ft | 441 kts | 24° |
| 2026-05-05 15:50 | 56.22568 | 15.00288 | 33886 ft | 441 kts | 24° |
| 2026-05-05 15:50 | 56.27955 | 15.05592 | 33886 ft | 442 kts | 24° |
| 2026-05-05 15:51 | 56.33344 | 15.10928 | 33885 ft | 442 kts | 24° |
| 2026-05-05 15:51 | 56.38739 | 15.16290 | 33889 ft | 443 kts | 24° |
| 2026-05-05 15:52 | 56.44153 | 15.21676 | 33886 ft | 443 kts | 24° |
| 2026-05-05 15:52 | 56.49523 | 15.27021 | 33878 ft | 444 kts | 24° |
| 2026-05-05 15:53 | 56.54932 | 15.32442 | 33876 ft | 445 kts | 24° |
| 2026-05-05 15:53 | 56.60355 | 15.37900 | 33875 ft | 445 kts | 24° |
| 2026-05-05 15:54 | 56.65758 | 15.43343 | 33874 ft | 445 kts | 24° |
| 2026-05-05 15:54 | 56.71159 | 15.48911 | 33885 ft | 449 kts | 25° |
| 2026-05-05 15:55 | 56.76569 | 15.54601 | 33870 ft | 448 kts | 25° |
| 2026-05-05 15:55 | 56.81969 | 15.60382 | 33879 ft | 449 kts | 25° |
| 2026-05-05 15:56 | 56.87333 | 15.66157 | 33877 ft | 449 kts | 25° |
| 2026-05-05 15:56 | 56.92723 | 15.71962 | 33877 ft | 449 kts | 25° |
| 2026-05-05 15:57 | 56.98111 | 15.77773 | 33881 ft | 449 kts | 25° |
| 2026-05-05 15:57 | 57.03457 | 15.83560 | 33883 ft | 449 kts | 25° |
| 2026-05-05 15:58 | 57.08839 | 15.89408 | 33879 ft | 449 kts | 25° |
| 2026-05-05 15:58 | 57.14223 | 15.95287 | 33884 ft | 449 kts | 25° |
| 2026-05-05 15:59 | 57.19620 | 16.01177 | 33881 ft | 450 kts | 25° |
| 2026-05-05 15:59 | 57.24982 | 16.07054 | 33874 ft | 450 kts | 25° |
| 2026-05-05 16:00 | 57.30382 | 16.13009 | 33872 ft | 451 kts | 25° |
| 2026-05-05 16:00 | 57.35748 | 16.18954 | 33874 ft | 451 kts | 25° |
| 2026-05-05 16:01 | 57.41147 | 16.24943 | 33878 ft | 451 kts | 25° |
| 2026-05-05 16:01 | 57.46515 | 16.30911 | 33881 ft | 452 kts | 25° |
| 2026-05-05 16:02 | 57.51930 | 16.36968 | 33883 ft | 453 kts | 25° |
| 2026-05-05 16:02 | 57.57303 | 16.42997 | 33888 ft | 454 kts | 25° |
| 2026-05-05 16:03 | 57.62735 | 16.49106 | 33892 ft | 455 kts | 25° |
| 2026-05-05 16:03 | 57.68162 | 16.55225 | 33889 ft | 456 kts | 25° |
| 2026-05-05 16:04 | 57.73594 | 16.61378 | 33888 ft | 456 kts | 25° |
| 2026-05-05 16:04 | 57.76314 | 16.64463 | 33601 ft | 458 kts | 25° |
| 2026-05-05 16:04 | 57.79036 | 16.67555 | 33129 ft | 458 kts | 25° |
| 2026-05-05 16:04 | 57.81739 | 16.70635 | 32612 ft | 459 kts | 25° |
| 2026-05-05 16:05 | 57.84464 | 16.73750 | 32086 ft | 460 kts | 25° |
| 2026-05-05 16:05 | 57.87196 | 16.76876 | 31566 ft | 461 kts | 25° |
| 2026-05-05 16:05 | 57.89939 | 16.80023 | 31060 ft | 462 kts | 25° |
| 2026-05-05 16:05 | 57.92686 | 16.83180 | 30567 ft | 463 kts | 25° |
| 2026-05-05 16:06 | 57.95455 | 16.86366 | 30077 ft | 464 kts | 25° |
| 2026-05-05 16:06 | 57.98219 | 16.89547 | 29534 ft | 463 kts | 25° |
| 2026-05-05 16:06 | 58.00920 | 16.92666 | 28964 ft | 460 kts | 25° |
| 2026-05-05 16:06 | 58.03640 | 16.95817 | 28420 ft | 457 kts | 25° |
| 2026-05-05 16:07 | 58.06346 | 16.98958 | 27865 ft | 455 kts | 25° |
| 2026-05-05 16:07 | 58.09031 | 17.02080 | 27334 ft | 452 kts | 25° |
| 2026-05-05 16:07 | 58.11698 | 17.05183 | 26815 ft | 449 kts | 25° |
| 2026-05-05 16:07 | 58.14344 | 17.08265 | 26305 ft | 446 kts | 25° |
| 2026-05-05 16:08 | 58.16974 | 17.11336 | 25797 ft | 442 kts | 25° |
| 2026-05-05 16:08 | 58.19585 | 17.14388 | 25292 ft | 439 kts | 25° |
| 2026-05-05 16:08 | 58.22181 | 17.17427 | 24821 ft | 437 kts | 25° |
| 2026-05-05 16:08 | 58.24757 | 17.20448 | 24329 ft | 434 kts | 25° |
| 2026-05-05 16:09 | 58.27309 | 17.23451 | 23865 ft | 431 kts | 25° |
| 2026-05-05 16:09 | 58.29850 | 17.26445 | 23389 ft | 428 kts | 25° |
| 2026-05-05 16:09 | 58.32375 | 17.29420 | 22835 ft | 426 kts | 25° |
| 2026-05-05 16:09 | 58.34884 | 17.32379 | 22292 ft | 423 kts | 25° |
| 2026-05-05 16:10 | 58.37382 | 17.35324 | 21754 ft | 421 kts | 25° |
| 2026-05-05 16:10 | 58.39860 | 17.38253 | 21236 ft | 418 kts | 25° |
| 2026-05-05 16:10 | 58.42325 | 17.41181 | 20711 ft | 416 kts | 25° |
| 2026-05-05 16:10 | 58.44780 | 17.44102 | 20205 ft | 414 kts | 25° |
| 2026-05-05 16:11 | 58.47219 | 17.47003 | 19689 ft | 413 kts | 25° |
| 2026-05-05 16:11 | 58.54472 | 17.55687 | 18264 ft | 408 kts | 25° |
| 2026-05-05 16:12 | 58.56842 | 17.58527 | 17745 ft | 406 kts | 25° |
| 2026-05-05 16:12 | 58.61617 | 17.64256 | 16670 ft | 403 kts | 25° |
| 2026-05-05 16:13 | 58.68713 | 17.72808 | 15139 ft | 399 kts | 25° |
| 2026-05-05 16:13 | 58.71060 | 17.75645 | 14634 ft | 397 kts | 25° |
| 2026-05-05 16:13 | 58.73365 | 17.78437 | 14167 ft | 396 kts | 25° |
| 2026-05-05 16:14 | 58.78213 | 17.82749 | 13130 ft | 371 kts | 1° |
| 2026-05-05 16:14 | 58.83059 | 17.81803 | 12071 ft | 339 kts | 330° |
| 2026-05-05 16:15 | 58.86823 | 17.76884 | 11030 ft | 324 kts | 320° |
| 2026-05-05 16:15 | 58.91164 | 17.75332 | 10851 ft | 326 kts | 5° |
| 2026-05-05 16:16 | 58.95569 | 17.77344 | 10852 ft | 325 kts | 7° |
| 2026-05-05 16:16 | 58.99948 | 17.79445 | 10852 ft | 324 kts | 7° |
| 2026-05-05 16:17 | 59.04331 | 17.81543 | 10853 ft | 324 kts | 7° |
| 2026-05-05 16:17 | 59.06456 | 17.82216 | 10855 ft | 304 kts | 358° |
| 2026-05-05 16:18 | 59.10569 | 17.82869 | 10859 ft | 294 kts | 358° |
| 2026-05-05 16:18 | 59.12611 | 17.83186 | 10852 ft | 294 kts | 358° |
| 2026-05-05 16:18 | 59.16710 | 17.83821 | 10125 ft | 294 kts | 359° |
| 2026-05-05 16:19 | 59.18746 | 17.84142 | 9752 ft | 293 kts | 359° |
| 2026-05-05 16:19 | 59.20767 | 17.84464 | 9338 ft | 292 kts | 360° |
| 2026-05-05 16:19 | 59.24836 | 17.85106 | 8260 ft | 297 kts | 0° |
| 2026-05-05 16:20 | 59.29001 | 17.85766 | 7212 ft | 302 kts | 1° |
| 2026-05-05 16:20 | 59.33203 | 17.86444 | 6187 ft | 300 kts | 1° |
| 2026-05-05 16:21 | 59.37143 | 17.87091 | 5118 ft | 270 kts | 1° |
| 2026-05-05 16:22 | 59.42366 | 17.87842 | 3999 ft | 230 kts | 4° |
| 2026-05-05 16:22 | 59.45491 | 17.88893 | 3735 ft | 223 kts | 6° |
| 2026-05-05 16:23 | 59.48350 | 17.89927 | 3146 ft | 198 kts | 5° |
| 2026-05-05 16:23 | 59.49677 | 17.90403 | 2892 ft | 190 kts | 5° |
| 2026-05-05 16:23 | 59.52220 | 17.91316 | 2375 ft | 178 kts | 5° |
| 2026-05-05 16:24 | 59.53404 | 17.91744 | 2111 ft | 168 kts | 5° |
| 2026-05-05 16:24 | 59.54532 | 17.92149 | 1881 ft | 163 kts | 5° |
| 2026-05-05 16:24 | 59.56627 | 17.92905 | 1465 ft | 146 kts | 4° |
| 2026-05-05 16:25 | 59.57615 | 17.93260 | 1267 ft | 143 kts | 4° |
| 2026-05-05 16:25 | 59.59558 | 17.93965 | 815 ft | 142 kts | 6° |
| 2026-05-05 16:25 | 59.60522 | 17.94301 | 590 ft | 140 kts | 6° |
| 2026-05-05 16:26 | 59.62426 | 17.95003 | 240 ft | 138 kts | 5° |
| 2026-05-05 16:26 | 59.64078 | 17.95595 | 120 ft | 78 kts | 10° |
| 2026-05-05 16:27 | 59.64473 | 17.95695 | 113 ft | 43 kts | 351° |
| 2026-05-05 16:27 | 59.64663 | 17.95576 | 111 ft | 22 kts | 339° |
| 2026-05-05 16:27 | 59.64801 | 17.95479 | 109 ft | 20 kts | 340° |
| 2026-05-05 16:27 | 59.64936 | 17.95499 | 109 ft | 19 kts | 9° |
| 2026-05-05 16:28 | 59.65064 | 17.95499 | 108 ft | 18 kts | 347° |
| 2026-05-05 16:28 | 59.65176 | 17.95443 | 110 ft | 15 kts | 344° |
| 2026-05-05 16:28 | 59.65279 | 17.95389 | 112 ft | 16 kts | 346° |
| 2026-05-05 16:28 | 59.65387 | 17.95336 | 116 ft | 16 kts | 345° |
| 2026-05-05 16:29 | 59.65493 | 17.95278 | 117 ft | 16 kts | 344° |
| 2026-05-05 16:29 | 59.65598 | 17.95222 | 117 ft | 15 kts | 345° |
| 2026-05-05 16:29 | 59.65694 | 17.95170 | 120 ft | 14 kts | 343° |
| 2026-05-05 16:29 | 59.65748 | 17.95041 | 119 ft | 13 kts | 275° |
| 2026-05-05 16:30 | 59.65731 | 17.94866 | 117 ft | 13 kts | 255° |
| 2026-05-05 16:30 | 59.65707 | 17.94687 | 119 ft | 14 kts | 256° |
| 2026-05-05 16:30 | 59.65685 | 17.94503 | 116 ft | 14 kts | 256° |
| 2026-05-05 16:30 | 59.65660 | 17.94316 | 116 ft | 14 kts | 256° |
| 2026-05-05 16:31 | 59.65636 | 17.94124 | 117 ft | 15 kts | 256° |
| 2026-05-05 16:31 | 59.65611 | 17.93928 | 115 ft | 15 kts | 252° |
| 2026-05-05 16:31 | 59.65530 | 17.93884 | 115 ft | 13 kts | 167° |
| 2026-05-05 16:31 | 59.65448 | 17.93924 | 115 ft | 12 kts | 166° |
| 2026-05-05 16:32 | 59.65377 | 17.93958 | 115 ft | 8 kts | 174° |
| 2026-05-05 16:32 | 59.65358 | 17.93893 | 115 ft | 5 kts | 262° |
| 2026-05-05 16:32 | 59.65354 | 17.93819 | 114 ft | 5 kts | 257° |
| 2026-05-05 16:32 | 59.65351 | 17.93794 | 114 ft | 0 kts | 256° |